ENAL/AES METAR and TAF weather

Enter ICAO airport designator
Station Type Date Time Source
ENAL METAR 2019/02/21 00:20 UTC NOAA

ENAL 210020Z AUTO 13015KT 9999 OVC029/// 04/02 Q1004


Station Type Date Time Source
ENAL Decoded METAR 2019/02/21 00:20 UTC NOAA

Alesund / Vigra, Norway (ENAL) 62-34N 006-07E 22M
Feb 20, 2019 - 07:20 PM EST / 2019.02.21 0020 UTC
Wind: from the SE (130 degrees) at 17 MPH (15 KT):0
Visibility: greater than 7 mile(s):0
Sky conditions: overcast
Temperature: 39 F (4 C)
Dew Point: 35 F (2 C)
Relative Humidity: 86%
Pressure (altimeter): 29.65 in. Hg (1004 hPa)
ob: ENAL 210020Z AUTO 13015KT 9999 OVC029/// 04/02 Q1004
cycle: 0

Station Type Date Time Source
ENAL TAF UTC NOAA

Error!


Example: see airport list